Time;durP1;ratioP1;P1;durP2;ratioP2;P2;SDS_P1;SDS_P2;PMS_P1;PMS_P2;Temp;Humidity;BMP_temperature;BMP_pressure;BME280_temperature;BME280_humidity;BME280_pressure;Samples;Min_cycle;Max_cycle;Signal;HPM_P1;HPM_P2
2022/12/15 00:38:44;;;;;;;87.82;47.08;;;;;;;3.11;86.91;98787.88;5014150;28;20028;-67
2022/12/15 00:41:16;;;;;;;132.10;59.75;;;;;;;3.15;87.55;98819.31;5012673;28;20069;-67
2022/12/15 00:43:42;;;;;;;83.38;48.10;;;;;;;2.56;90.51;98814.97;5007745;28;20033;-67
2022/12/15 00:48:52;;;;;;;76.47;44.63;;;;;;;3.01;89.36;98775.88;5013528;28;20048;-67
2022/12/15 00:51:19;;;;;;;83.13;47.58;;;;;;;2.95;88.35;98763.25;5012338;28;20037;-67
2022/12/15 01:21:08;;;;;;;89.25;50.25;;;;;;;2.99;90.51;98758.78;4994076;28;20076;-67
2022/12/15 01:23:35;;;;;;;87.20;50.22;;;;;;;2.98;90.01;98767.38;4994096;28;20030;-68
2022/12/15 01:26:01;;;;;;;96.38;52.38;;;;;;;2.88;89.51;98771.94;5029568;28;20452;-67
2022/12/15 01:28:27;;;;;;;91.57;51.72;;;;;;;2.98;89.56;98768.19;5031938;28;20056;-67
2022/12/15 01:30:53;;;;;;;89.70;52.38;;;;;;;3.04;89.49;98774.47;5033050;28;20033;-67
2022/12/15 01:33:19;;;;;;;84.93;49.42;;;;;;;3.07;89.26;98795.94;5011532;28;20022;-67
2022/12/15 01:35:45;;;;;;;88.45;49.10;;;;;;;3.09;88.69;98788.19;4993549;28;20037;-67
2022/12/15 01:38:10;;;;;;;84.63;47.67;;;;;;;2.91;89.70;98774.09;4993421;28;20034;-68
2022/12/15 01:40:45;;;;;;;88.43;50.38;;;;;;;2.80;90.48;98778.97;4995784;28;20014;-67
2022/12/15 01:43:30;;;;;;;86.50;52.30;;;;;;;2.95;90.46;98788.94;5012755;28;20424;-67
2022/12/15 01:46:17;;;;;;;93.80;51.83;;;;;;;2.25;92.36;98793.28;5010864;28;20029;-67
2022/12/15 01:48:53;;;;;;;93.15;53.55;;;;;;;1.83;95.89;98773.66;5007984;28;20419;-67
2022/12/15 01:51:31;;;;;;;103.45;57.55;;;;;;;1.64;97.79;98785.47;5011536;28;20034;-67
2022/12/15 01:54:05;;;;;;;107.47;59.17;;;;;;;1.64;99.64;98804.75;5010418;28;20021;-67
2022/12/15 01:56:34;;;;;;;108.55;60.40;;;;;;;1.61;100.00;98816.34;5010827;28;20378;-67
2022/12/15 01:59:02;;;;;;;101.43;59.40;;;;;;;1.64;99.70;98806.69;5012152;28;20022;-67
2022/12/15 02:01:28;;;;;;;112.95;59.33;;;;;;;1.33;100.00;98807.00;5009619;28;20088;-67
2022/12/15 02:03:54;;;;;;;112.32;63.92;;;;;;;1.29;100.00;98816.94;5010807;28;20017;-67
2022/12/15 02:06:21;;;;;;;116.95;65.82;;;;;;;1.29;100.00;98827.97;5012481;28;20030;-67
2022/12/15 02:08:49;;;;;;;112.88;62.63;;;;;;;1.29;100.00;98833.47;5003444;28;20041;-67
2022/12/15 02:11:42;;;;;;;108.85;61.80;;;;;;;1.31;100.00;98836.75;4992815;28;20030;-67
2022/12/15 02:14:10;;;;;;;126.65;67.80;;;;;;;1.40;100.00;98835.03;4991522;28;20018;-67
2022/12/15 02:16:54;;;;;;;130.70;68.65;;;;;;;1.37;100.00;98832.84;4992755;28;20062;-67
2022/12/15 02:20:04;;;;;;;119.68;66.00;;;;;;;1.33;100.00;98835.38;4992722;28;20029;-67
2022/12/15 02:23:04;;;;;;;120.78;67.38;;;;;;;1.40;100.00;98857.06;4992564;28;20026;-68
2022/12/15 02:26:06;;;;;;;119.78;64.43;;;;;;;1.48;100.00;98853.72;4994268;28;20481;-67
2022/12/15 02:28:59;;;;;;;117.72;63.65;;;;;;;1.52;100.00;98831.91;4992538;28;20525;-67
2022/12/15 02:31:50;;;;;;;109.43;60.92;;;;;;;1.57;100.00;98842.88;4992582;28;20034;-67
2022/12/15 02:34:25;;;;;;;117.75;63.15;;;;;;;1.63;100.00;98854.66;5001954;28;20500;-67
2022/12/15 02:36:57;;;;;;;108.35;59.95;;;;;;;1.58;100.00;98846.47;5011592;28;20496;-68
2022/12/15 02:39:24;;;;;;;105.53;62.13;;;;;;;1.49;100.00;98858.09;4998425;28;20026;-67
2022/12/15 02:41:51;;;;;;;103.45;62.33;;;;;;;1.43;100.00;98864.75;5004899;28;20036;-67
2022/12/15 02:44:22;;;;;;;109.57;61.20;;;;;;;1.48;100.00;98858.38;5011481;28;20420;-67
2022/12/15 02:47:06;;;;;;;110.57;60.65;;;;;;;1.48;100.00;98852.88;5011654;28;20467;-67
2022/12/15 02:50:03;;;;;;;109.22;58.95;;;;;;;1.54;100.00;98837.94;5007987;28;20081;-67
2022/12/15 02:52:54;;;;;;;105.68;57.70;;;;;;;1.48;100.00;98839.91;5006962;28;20064;-68
2022/12/15 02:55:54;;;;;;;96.30;55.47;;;;;;;1.40;100.00;98841.38;5010036;28;20029;-67
2022/12/15 02:58:32;;;;;;;107.80;58.08;;;;;;;1.46;100.00;98831.13;4989174;28;20041;-67
2022/12/15 03:01:07;;;;;;;95.90;55.05;;;;;;;1.39;100.00;98844.41;5007546;28;20113;-68
2022/12/15 03:03:34;;;;;;;105.45;53.25;;;;;;;1.42;100.00;98827.28;5011147;28;20040;-67
2022/12/15 03:06:04;;;;;;;94.60;53.60;;;;;;;1.50;100.00;98828.59;5010170;28;20049;-67
2022/12/15 03:08:29;;;;;;;90.45;53.08;;;;;;;1.50;100.00;98828.59;5005863;28;20049;-67
2022/12/15 03:10:56;;;;;;;93.40;52.75;;;;;;;1.54;100.00;98824.97;5005206;28;20042;-67
2022/12/15 03:13:22;;;;;;;92.63;50.15;;;;;;;1.74;100.00;98819.53;5011249;28;20463;-67
2022/12/15 03:15:48;;;;;;;87.90;50.50;;;;;;;1.68;99.08;98824.28;5009989;28;20072;-67
2022/12/15 03:18:14;;;;;;;84.70;46.30;;;;;;;2.00;98.67;98822.84;5010142;28;20053;-67
2022/12/15 03:20:40;;;;;;;79.78;42.50;;;;;;;2.04;97.58;98825.81;5011140;28;20574;-67
2022/12/15 03:23:05;;;;;;;80.78;45.00;;;;;;;2.10;97.18;98817.19;5009646;28;20092;-67
2022/12/15 03:25:31;;;;;;;74.47;43.72;;;;;;;2.16;96.12;98817.13;5011295;28;20108;-67
2022/12/15 03:27:56;;;;;;;79.32;45.55;;;;;;;2.32;95.92;98810.31;5010694;28;20421;-68
2022/12/15 03:30:22;;;;;;;70.00;40.20;;;;;;;2.33;95.66;98822.97;5009666;28;20045;-67
2022/12/15 03:32:48;;;;;;;82.13;44.63;;;;;;;2.34;95.50;98815.50;5010676;28;20113;-67
2022/12/15 03:35:13;;;;;;;75.70;42.90;;;;;;;2.37;95.45;98810.22;5009534;28;20042;-68
2022/12/15 03:37:39;;;;;;;77.18;42.90;;;;;;;2.44;95.42;98818.13;5002073;28;20026;-68
2022/12/15 03:40:06;;;;;;;75.18;42.90;;;;;;;2.38;95.31;98817.38;5011164;28;20029;-68
2022/12/15 03:42:49;;;;;;;75.38;41.95;;;;;;;2.53;94.90;98812.75;4991646;28;20031;-68
2022/12/15 03:45:23;;;;;;;71.10;42.05;;;;;;;2.56;94.10;98822.41;4992867;28;20074;-67
2022/12/15 03:47:50;;;;;;;76.60;41.63;;;;;;;2.53;93.58;98807.25;5010701;28;20025;-68
2022/12/15 03:50:18;;;;;;;70.65;40.20;;;;;;;2.55;94.12;98798.69;5010590;28;20046;-67
2022/12/15 03:52:43;;;;;;;68.50;38.30;;;;;;;2.56;93.64;98803.91;5001207;28;20041;-68
2022/12/15 03:55:10;;;;;;;66.95;41.22;;;;;;;2.60;93.10;98807.72;5010810;28;20022;-67
2022/12/15 03:57:36;;;;;;;67.15;39.42;;;;;;;2.80;92.08;98809.34;5009107;28;20115;-68
2022/12/15 04:00:04;;;;;;;71.45;42.15;;;;;;;2.94;92.03;98809.41;5008742;28;20026;-67
2022/12/15 04:02:30;;;;;;;71.55;43.03;;;;;;;2.98;91.39;98800.53;5002793;28;20456;-68
2022/12/15 04:04:55;;;;;;;68.90;41.53;;;;;;;3.02;91.66;98785.00;5010942;28;20141;-67
2022/12/15 04:07:21;;;;;;;68.07;41.53;;;;;;;3.14;90.65;98790.03;5011171;28;20477;-67
2022/12/15 04:09:46;;;;;;;68.70;39.28;;;;;;;3.26;90.34;98784.84;5014784;28;20104;-67
2022/12/15 04:12:12;;;;;;;70.22;41.17;;;;;;;3.27;89.37;98780.16;5012316;28;20033;-67
2022/12/15 04:14:41;;;;;;;63.17;38.70;;;;;;;3.33;89.34;98787.22;4997799;28;20191;-67
2022/12/15 04:17:11;;;;;;;64.15;38.70;;;;;;;2.81;90.43;98777.84;5026537;28;20035;-68
2022/12/15 04:22:21;;;;;;;79.93;46.25;;;;;;;2.28;92.75;98787.16;4995212;28;20088;-68
2022/12/15 05:33:10;;;;;;;82.28;47.45;;;;;;;3.50;90.94;98830.88;5011466;28;20202;-68
2022/12/15 05:35:35;;;;;;;90.13;51.33;;;;;;;3.29;91.53;98858.06;5011636;28;20030;-68
2022/12/15 05:38:01;;;;;;;84.47;48.10;;;;;;;3.28;92.09;98878.53;5012709;28;20465;-68
2022/12/15 05:40:26;;;;;;;84.38;47.33;;;;;;;3.30;92.50;98855.00;5012575;28;20484;-67
2022/12/15 05:42:52;;;;;;;88.63;47.15;;;;;;;3.43;91.61;98858.94;5003496;28;20030;-67
2022/12/15 05:45:17;;;;;;;82.88;45.78;;;;;;;3.51;91.88;98861.00;4996718;28;20484;-67
2022/12/15 05:47:42;;;;;;;94.30;48.30;;;;;;;3.59;91.16;98864.19;5011331;28;20540;-68
2022/12/15 05:50:08;;;;;;;89.47;48.90;;;;;;;3.67;91.13;98869.03;5010917;28;20046;-68
2022/12/15 05:52:34;;;;;;;81.35;49.13;;;;;;;3.67;90.77;98874.56;5002872;28;20021;-68
2022/12/15 05:54:59;;;;;;;84.07;45.70;;;;;;;3.68;90.10;98875.38;5003923;28;20040;-68
2022/12/15 05:57:24;;;;;;;80.95;45.30;;;;;;;3.62;90.80;98891.25;5006478;28;20030;-68
2022/12/15 05:59:50;;;;;;;82.50;46.17;;;;;;;3.62;91.21;98894.00;5011634;28;20026;-68
2022/12/15 06:02:15;;;;;;;78.78;45.95;;;;;;;3.63;91.06;98892.91;5007400;28;20057;-67
2022/12/15 06:04:41;;;;;;;73.82;43.58;;;;;;;3.40;91.33;98898.25;5005043;28;20034;-68
2022/12/15 06:07:06;;;;;;;74.53;44.72;;;;;;;3.49;92.57;98895.63;5009333;28;20069;-69
2022/12/15 06:09:32;;;;;;;74.45;44.10;;;;;;;3.45;92.71;98892.63;5007980;28;20037;-69
2022/12/15 06:11:57;;;;;;;74.68;42.78;;;;;;;3.48;92.71;98905.84;5003898;28;20037;-69
2022/12/15 06:14:23;;;;;;;71.53;41.50;;;;;;;3.50;92.16;98903.63;5003124;28;20092;-69
2022/12/15 06:16:48;;;;;;;78.80;44.83;;;;;;;3.41;92.66;98924.78;5008621;28;20073;-67
2022/12/15 06:19:13;;;;;;;100.00;48.92;;;;;;;3.21;93.39;98912.91;5009840;28;20029;-66
2022/12/15 06:21:39;;;;;;;99.50;53.90;;;;;;;3.12;94.77;98913.88;5009581;28;20029;-66
2022/12/15 06:24:05;;;;;;;117.55;63.85;;;;;;;3.06;95.64;98904.84;5009599;28;20026;-68
2022/12/15 06:26:38;;;;;;;105.55;62.67;;;;;;;3.14;96.01;98917.16;5006727;28;20477;-69
2022/12/15 06:29:07;;;;;;;82.53;49.13;;;;;;;3.15;95.93;98927.09;5021834;28;20025;-72
2022/12/15 06:31:33;;;;;;;94.15;52.65;;;;;;;3.05;95.90;98930.84;4999293;28;20053;-69
2022/12/15 06:34:02;;;;;;;97.63;51.88;;;;;;;2.94;97.06;98925.44;5009401;28;20401;-68
2022/12/15 06:36:27;;;;;;;99.82;56.17;;;;;;;3.11;96.39;98917.78;5009013;28;20029;-69
2022/12/15 06:38:53;;;;;;;114.93;62.67;;;;;;;3.24;96.71;98914.25;5007946;28;20038;-68
2022/12/15 06:41:20;;;;;;;125.78;70.45;;;;;;;3.32;96.01;98918.28;5007552;28;20022;-68
2022/12/15 06:43:50;;;;;;;167.18;93.03;;;;;;;3.49;95.71;98921.31;5007130;28;20037;-68
2022/12/15 06:46:15;;;;;;;100.32;56.42;;;;;;;3.53;94.96;98940.09;5002231;28;20053;-69
2022/12/15 06:48:43;;;;;;;105.10;62.03;;;;;;;3.65;94.40;98934.91;5008051;28;20069;-69
2022/12/15 06:51:10;;;;;;;133.18;75.28;;;;;;;3.65;93.58;98926.63;5005445;28;20135;-68
2022/12/15 06:53:37;;;;;;;145.15;90.30;;;;;;;3.54;94.53;98917.66;5008344;28;20092;-67
2022/12/15 06:56:06;;;;;;;174.77;96.28;;;;;;;3.59;94.88;98923.09;5009730;28;20408;-69
2022/12/15 06:58:32;;;;;;;182.70;98.65;;;;;;;3.64;95.17;98924.97;5008685;28;20034;-68
2022/12/15 07:00:58;;;;;;;180.82;91.97;;;;;;;3.59;95.26;98920.34;5000762;28;20037;-68
2022/12/15 07:03:24;;;;;;;107.75;56.05;;;;;;;3.76;94.93;98892.13;4990760;28;20033;-67
2022/12/15 07:06:01;;;;;;;89.97;48.20;;;;;;;3.58;96.69;98893.81;5008371;28;20026;-68
2022/12/15 07:08:26;;;;;;;127.82;76.97;;;;;;;3.55;97.67;98933.13;5007643;28;20411;-69
2022/12/15 07:10:52;;;;;;;103.60;62.08;;;;;;;3.74;98.08;98918.44;5006449;28;20022;-66
2022/12/15 07:13:17;;;;;;;132.93;78.25;;;;;;;3.77;97.86;98920.59;5007405;28;20060;-66
2022/12/15 07:15:43;;;;;;;113.07;56.67;;;;;;;3.86;97.70;98921.53;5002401;28;20034;-65
2022/12/15 07:18:09;;;;;;;176.93;79.47;;;;;;;4.00;97.17;98934.59;4989165;28;20061;-66
2022/12/15 07:20:35;;;;;;;100.57;48.75;;;;;;;4.02;96.63;98935.94;4995935;28;20029;-67
2022/12/15 07:23:06;;;;;;;238.48;119.68;;;;;;;4.23;95.25;98946.63;4998780;28;20052;-67
2022/12/15 07:25:32;;;;;;;427.52;220.63;;;;;;;4.47;94.55;98934.56;5000524;28;20100;-68
2022/12/15 07:27:57;;;;;;;183.63;95.78;;;;;;;4.85;93.82;98926.00;4988574;28;20026;-69
2022/12/15 07:30:23;;;;;;;84.25;43.17;;;;;;;4.61;92.33;98935.38;5002877;28;20026;-69
2022/12/15 07:32:48;;;;;;;78.35;37.75;;;;;;;4.66;92.78;98941.94;4992026;28;20038;-68
2022/12/15 07:35:14;;;;;;;56.75;32.50;;;;;;;4.56;92.03;98945.72;4998567;28;20501;-68
2022/12/15 07:37:39;;;;;;;62.72;30.55;;;;;;;4.33;92.51;98951.16;5004765;28;20496;-69
2022/12/15 07:40:05;;;;;;;53.47;31.15;;;;;;;4.42;92.67;98942.94;4989301;28;20480;-68
2022/12/15 07:42:31;;;;;;;59.30;30.77;;;;;;;4.42;91.76;98945.72;4991450;28;20045;-68
2022/12/15 07:44:57;;;;;;;66.47;32.50;;;;;;;4.55;92.06;98939.34;5001884;28;20053;-67
2022/12/15 07:47:22;;;;;;;54.53;32.53;;;;;;;4.80;91.62;98937.19;5000757;28;20449;-66
2022/12/15 07:49:48;;;;;;;72.38;40.97;;;;;;;5.02;90.65;98944.78;5003468;28;20060;-67
2022/12/15 07:52:13;;;;;;;63.28;33.47;;;;;;;5.16;90.12;98966.91;4992588;28;20030;-66
2022/12/15 07:54:39;;;;;;;60.80;30.23;;;;;;;5.27;89.79;98961.13;4991383;28;20113;-67
2022/12/15 07:57:06;;;;;;;55.47;29.20;;;;;;;5.22;89.28;98958.50;4996227;28;20041;-68
2022/12/15 07:59:33;;;;;;;61.85;29.77;;;;;;;5.41;88.62;98961.91;4998125;28;20050;-65
2022/12/15 08:01:59;;;;;;;54.50;29.73;;;;;;;5.57;87.79;98970.69;5002070;28;20038;-67
2022/12/15 08:04:25;;;;;;;48.25;28.02;;;;;;;5.29;87.52;98972.72;5006011;28;20492;-66
2022/12/15 08:06:53;;;;;;;55.55;30.70;;;;;;;5.21;88.38;98977.06;5029948;28;20084;-66
2022/12/15 08:09:19;;;;;;;53.65;30.23;;;;;;;5.15;87.99;98968.03;5014328;28;20026;-65
2022/12/15 08:11:44;;;;;;;51.78;30.35;;;;;;;5.11;88.72;98957.88;5012778;28;20037;-66
2022/12/15 08:14:10;;;;;;;54.30;30.92;;;;;;;5.33;88.79;98955.16;4996224;28;20080;-64
2022/12/15 08:16:36;;;;;;;64.25;36.40;;;;;;;5.40;87.86;98956.69;5006706;28;20037;-67
2022/12/15 08:19:04;;;;;;;50.28;28.65;;;;;;;5.46;87.37;98966.53;5003266;28;20026;-68
2022/12/15 08:21:30;;;;;;;52.80;28.67;;;;;;;5.42;87.27;98957.19;4997589;28;20041;-70
2022/12/15 08:23:56;;;;;;;59.72;28.65;;;;;;;5.56;87.79;98959.94;4996181;28;20484;-71
2022/12/15 08:26:22;;;;;;;46.65;24.45;;;;;;;5.64;87.45;98959.16;5012601;28;20030;-70
2022/12/15 08:28:48;;;;;;;51.88;26.30;;;;;;;5.88;86.64;98961.63;4999544;28;20496;-68
2022/12/15 08:31:16;;;;;;;44.83;24.83;;;;;;;6.11;86.06;98955.25;4995252;28;20118;-69
2022/12/15 08:33:43;;;;;;;47.10;26.17;;;;;;;6.06;86.05;98947.88;4995496;28;20038;-68
2022/12/15 08:36:11;;;;;;;43.08;24.50;;;;;;;6.35;85.05;98965.19;5003493;28;20038;-68
2022/12/15 08:38:38;;;;;;;41.17;22.85;;;;;;;6.17;85.03;98965.13;5014367;28;20029;-68
2022/12/15 08:41:12;;;;;;;38.05;22.05;;;;;;;6.47;84.67;98959.88;5004247;28;20030;-68
2022/12/15 08:43:39;;;;;;;37.97;22.00;;;;;;;6.63;84.39;98967.75;4996130;28;20045;-69
2022/12/15 08:46:05;;;;;;;32.85;18.90;;;;;;;6.88;82.16;98972.63;4999084;28;20034;-68
2022/12/15 08:48:30;;;;;;;30.30;18.52;;;;;;;7.12;81.77;98971.38;4994633;28;20109;-69
2022/12/15 08:50:57;;;;;;;34.17;19.02;;;;;;;7.35;80.26;98976.78;4993941;28;20118;-69
2022/12/15 08:53:24;;;;;;;37.15;20.08;;;;;;;7.14;80.53;98980.22;4994741;28;20026;-69
2022/12/15 08:55:49;;;;;;;33.97;18.35;;;;;;;7.10;81.92;98973.63;4999582;28;20030;-69
2022/12/15 08:58:15;;;;;;;31.70;18.75;;;;;;;7.09;81.08;98971.19;5003818;28;20060;-69
2022/12/15 09:00:40;;;;;;;30.88;18.30;;;;;;;7.45;80.13;98968.13;5003524;28;20740;-69
2022/12/15 09:03:06;;;;;;;25.95;16.20;;;;;;;7.33;79.09;98956.81;5004448;28;20034;-68
2022/12/15 09:05:35;;;;;;;26.98;16.40;;;;;;;7.02;79.18;98964.13;5006422;28;20468;-69
2022/12/15 09:08:00;;;;;;;25.75;16.23;;;;;;;7.27;78.67;98961.72;5000777;28;20408;-70
2022/12/15 09:10:26;;;;;;;27.42;16.85;;;;;;;6.63;81.17;98965.00;4997156;28;20057;-71
2022/12/15 09:12:51;;;;;;;23.10;15.52;;;;;;;7.14;81.15;98971.03;4998834;28;20029;-68
2022/12/15 09:15:17;;;;;;;28.63;17.80;;;;;;;7.41;81.44;98967.16;5001087;28;20034;-70
2022/12/15 09:17:44;;;;;;;27.90;16.75;;;;;;;7.84;78.20;98967.44;5038172;28;20177;-68
2022/12/15 09:20:10;;;;;;;30.70;17.52;;;;;;;7.81;78.74;98960.59;4994733;28;20022;-69
2022/12/15 09:22:35;;;;;;;29.13;17.77;;;;;;;8.10;76.99;98981.34;4994075;28;20053;-69
2022/12/15 09:25:04;;;;;;;31.30;18.92;;;;;;;7.73;77.06;98955.84;5010708;28;20552;-69
2022/12/15 09:27:30;;;;;;;30.48;18.23;;;;;;;7.91;78.57;98955.84;4998987;28;20482;-70
2022/12/15 09:29:56;;;;;;;26.95;15.50;;;;;;;7.83;77.77;98947.16;4993491;28;20043;-71
2022/12/15 09:32:22;;;;;;;37.38;25.95;;;;;;;8.35;76.26;98942.63;4995007;28;20040;-70
2022/12/15 09:34:50;;;;;;;44.45;30.33;;;;;;;8.71;74.63;98954.50;5006683;28;20116;-68
2022/12/15 09:37:15;;;;;;;22.23;14.48;;;;;;;8.28;75.60;98959.84;5012429;28;20459;-68
2022/12/15 09:39:41;;;;;;;22.95;15.18;;;;;;;8.15;76.18;98955.28;5013441;28;20022;-68
2022/12/15 09:42:26;;;;;;;39.92;28.52;;;;;;;8.70;75.07;98966.78;5008816;28;20561;-67
2022/12/15 09:45:18;;;;;;;21.33;14.25;;;;;;;7.78;76.20;98975.16;4999645;28;20057;-67
2022/12/15 09:47:51;;;;;;;22.60;13.93;;;;;;;7.93;76.53;98962.69;5002103;28;20046;-68
2022/12/15 09:50:23;;;;;;;32.75;20.00;;;;;;;8.27;76.12;98961.00;4992972;28;20105;-69
2022/12/15 09:52:52;;;;;;;24.48;16.08;;;;;;;7.84;77.57;98961.88;4993685;28;20026;-69
2022/12/15 09:55:20;;;;;;;21.02;12.90;;;;;;;7.89;77.63;98969.25;4993104;28;20412;-68
2022/12/15 09:57:54;;;;;;;24.80;15.60;;;;;;;7.68;77.70;98967.16;4992815;28;20027;-70
2022/12/15 10:00:35;;;;;;;23.55;15.13;;;;;;;7.81;78.76;98962.56;4997781;28;20023;-69
2022/12/15 10:03:07;;;;;;;24.63;15.73;;;;;;;8.13;78.11;98971.53;4995378;28;20476;-68
2022/12/15 10:05:54;;;;;;;22.77;14.95;;;;;;;8.38;76.33;98963.44;5010056;28;20064;-68
2022/12/15 10:08:22;;;;;;;23.25;15.30;;;;;;;8.39;74.43;98967.84;5012532;28;20120;-68
2022/12/15 10:10:57;;;;;;;24.85;16.00;;;;;;;8.61;75.19;98968.78;5008938;28;20022;-68
2022/12/15 10:13:36;;;;;;;26.13;16.42;;;;;;;9.10;74.81;98963.63;5009088;28;20058;-68
2022/12/15 10:16:13;;;;;;;26.42;16.17;;;;;;;9.45;73.02;98950.59;5000540;28;20095;-68
2022/12/15 10:18:49;;;;;;;26.92;15.68;;;;;;;9.55;72.22;98958.56;4993309;28;20042;-66
2022/12/15 10:21:14;;;;;;;52.40;25.15;;;;;;;9.59;71.16;98964.25;4992990;28;20105;-69
2022/12/15 10:23:40;;;;;;;35.28;16.75;;;;;;;9.63;71.58;98960.44;5006134;28;20160;-68
2022/12/15 10:26:19;;;;;;;29.83;15.48;;;;;;;9.91;70.75;98953.47;4993261;28;20519;-68
2022/12/15 10:29:03;;;;;;;50.97;25.05;;;;;;;10.04;68.98;98943.19;4994033;28;20504;-69
2022/12/15 10:31:49;;;;;;;29.58;17.60;;;;;;;10.01;68.55;98950.25;4995677;28;20030;-68
2022/12/15 10:34:39;;;;;;;25.58;14.60;;;;;;;10.10;69.16;98939.81;5005773;28;20026;-67
2022/12/15 10:37:05;;;;;;;32.20;16.35;;;;;;;10.15;70.15;98941.59;4979549;28;20113;-70
2022/12/15 10:39:39;;;;;;;55.58;26.35;;;;;;;10.19;68.61;98944.47;5026084;28;20029;-68
2022/12/15 10:42:13;;;;;;;18.95;11.23;;;;;;;10.37;68.16;98937.53;5010782;28;20288;-67
2022/12/15 10:44:42;;;;;;;17.05;10.70;;;;;;;10.52;67.34;98935.25;4999892;28;20092;-68
2022/12/15 10:47:24;;;;;;;23.35;15.00;;;;;;;10.34;67.74;98948.59;5009578;28;20032;-70
2022/12/15 10:49:51;;;;;;;19.75;13.65;;;;;;;10.07;68.32;98934.91;5011343;28;20042;-67
2022/12/15 10:52:31;;;;;;;22.13;13.25;;;;;;;10.65;68.67;98947.28;4994315;28;20395;-64
2022/12/15 10:54:56;;;;;;;20.45;13.07;;;;;;;10.24;68.48;98956.25;5006670;28;20029;-63
2022/12/15 10:57:30;;;;;;;61.45;27.17;;;;;;;10.53;68.90;98948.91;5004823;28;20030;-65
2022/12/15 11:00:32;;;;;;;35.92;17.80;;;;;;;10.80;67.77;98943.78;4997197;28;20034;-66
2022/12/15 11:02:58;;;;;;;21.75;12.70;;;;;;;10.95;66.94;98945.06;4961600;28;20031;-67
2022/12/15 11:05:25;;;;;;;18.80;12.65;;;;;;;10.60;67.96;98941.91;4993406;28;20042;-67
2022/12/15 11:08:27;;;;;;;22.05;12.57;;;;;;;10.05;69.61;98947.59;5011975;28;20473;-67
2022/12/15 11:13:39;;;;;;;562.00;239.07;;;;;;;10.76;67.27;98962.44;4992648;28;20053;-65
2022/12/15 11:16:16;;;;;;;610.72;279.58;;;;;;;11.07;66.49;98960.22;5002150;28;20030;-67
2022/12/15 11:18:51;;;;;;;134.30;54.97;;;;;;;11.31;65.30;98955.78;4992875;28;20122;-68
2022/12/15 11:21:25;;;;;;;34.40;17.45;;;;;;;11.05;65.69;98962.56;5001295;28;20452;-68
2022/12/15 11:23:54;;;;;;;19.80;12.10;;;;;;;10.85;65.81;98955.91;4996787;28;20033;-67
2022/12/15 11:26:38;;;;;;;17.70;12.07;;;;;;;10.88;65.58;98950.44;4990606;28;20068;-66
2022/12/15 11:29:22;;;;;;;19.85;12.60;;;;;;;10.97;66.37;98946.72;4991984;28;20092;-66
2022/12/15 11:31:49;;;;;;;36.35;23.35;;;;;;;11.22;65.64;98947.47;4995194;28;20445;-66
2022/12/15 11:34:24;;;;;;;31.45;20.50;;;;;;;10.94;65.86;98948.22;5011248;28;20113;-66
2022/12/15 11:37:08;;;;;;;140.07;83.32;;;;;;;11.11;65.57;98961.16;5011374;28;20030;-65
2022/12/15 11:40:01;;;;;;;29.92;19.00;;;;;;;11.01;65.87;98956.84;4999236;28;20484;-66
2022/12/15 11:42:48;;;;;;;20.17;12.77;;;;;;;10.81;66.50;98965.00;4989310;28;20042;-68
2022/12/15 11:45:51;;;;;;;19.58;11.35;;;;;;;11.07;66.47;98963.81;4990499;28;20397;-68
2022/12/15 11:48:58;;;;;;;27.45;13.98;;;;;;;11.20;67.18;98961.00;4990189;28;20096;-67
2022/12/15 11:51:36;;;;;;;27.50;17.25;;;;;;;11.28;67.15;98953.66;5001371;28;20037;-68
2022/12/15 11:54:14;;;;;;;16.67;11.68;;;;;;;11.38;66.72;98956.81;4996361;28;20478;-66
2022/12/15 11:57:10;;;;;;;18.45;12.52;;;;;;;11.35;66.97;98954.72;4997633;28;20041;-68
2022/12/15 12:00:11;;;;;;;17.83;11.07;;;;;;;11.52;66.90;98961.19;5026490;28;20489;-67
2022/12/15 12:03:12;;;;;;;24.45;14.70;;;;;;;11.70;67.08;98956.13;4991129;28;20519;-67
2022/12/15 12:05:53;;;;;;;17.67;11.45;;;;;;;11.71;66.88;98962.56;4994751;28;20092;-67
2022/12/15 12:08:37;;;;;;;17.55;13.02;;;;;;;11.77;67.72;98973.16;5009436;28;20030;-64
2022/12/15 12:11:14;;;;;;;20.42;11.95;;;;;;;11.72;67.43;98964.19;4991346;28;20035;-65
2022/12/15 12:13:46;;;;;;;16.55;11.13;;;;;;;11.79;66.40;98970.00;4990049;28;20030;-67
2022/12/15 12:16:32;;;;;;;18.42;11.80;;;;;;;11.85;65.74;98976.97;4992529;28;20045;-65
2022/12/15 12:19:08;;;;;;;16.38;10.82;;;;;;;11.88;65.25;98973.47;5005467;28;20081;-67
2022/12/15 12:21:45;;;;;;;15.85;10.52;;;;;;;12.00;64.77;98981.00;5010278;28;20061;-67
2022/12/15 12:24:16;;;;;;;17.90;10.77;;;;;;;12.10;64.34;98985.31;4999644;28;20201;-67
2022/12/15 12:26:41;;;;;;;19.75;11.05;;;;;;;12.13;65.84;98983.81;5004594;28;20093;-66
2022/12/15 12:29:19;;;;;;;25.70;13.88;;;;;;;12.09;64.85;98983.69;5006567;28;20033;-67
2022/12/15 12:31:50;;;;;;;47.08;28.63;;;;;;;11.94;64.16;98983.25;5011701;28;20018;-67
2022/12/15 12:34:42;;;;;;;17.67;11.77;;;;;;;12.03;64.23;98985.09;5006953;28;20025;-67
2022/12/15 12:37:35;;;;;;;13.05;8.57;;;;;;;11.82;63.23;98986.06;5009061;28;20018;-67
2022/12/15 12:40:06;;;;;;;13.95;9.18;;;;;;;11.84;64.06;98989.38;5009924;28;20083;-67
2022/12/15 12:42:45;;;;;;;16.88;10.18;;;;;;;11.98;64.83;98993.75;5005547;28;20034;-68
2022/12/15 12:45:13;;;;;;;23.63;16.33;;;;;;;12.07;65.01;98995.25;5006431;28;20021;-67
2022/12/15 12:47:43;;;;;;;19.50;10.45;;;;;;;12.13;64.20;98992.22;5008254;28;20559;-67
2022/12/15 12:50:15;;;;;;;;;;;;;;;12.11;63.55;98997.34;5008527;28;20129;-67
2022/12/15 12:52:51;;;;;;;15.95;10.63;;;;;;;12.15;63.76;98998.28;5021432;28;19921;-66
2022/12/15 12:55:25;;;;;;;14.52;9.63;;;;;;;11.98;63.50;99000.16;5010656;28;20412;-70
2022/12/15 12:57:51;;;;;;;12.80;9.07;;;;;;;12.07;64.09;99003.66;4997643;28;20045;-71
2022/12/15 13:00:23;;;;;;;14.02;8.57;;;;;;;12.20;63.76;99024.06;5006625;28;20038;-67
2022/12/15 13:03:12;;;;;;;14.85;9.73;;;;;;;12.04;64.40;99015.59;5006176;28;20504;-68
2022/12/15 13:05:41;;;;;;;16.83;9.85;;;;;;;12.12;63.78;99016.63;5008604;28;20030;-68
2022/12/15 13:08:07;;;;;;;18.20;14.10;;;;;;;12.21;63.75;99014.47;5004430;28;20025;-67
2022/12/15 13:10:36;;;;;;;24.85;14.13;;;;;;;12.23;65.18;99022.50;5008134;28;20034;-68
2022/12/15 13:13:17;;;;;;;38.38;22.85;;;;;;;12.26;66.52;99026.59;5006581;28;20030;-66
2022/12/15 13:15:48;;;;;;;83.65;41.65;;;;;;;11.98;67.53;99022.59;5007355;28;20034;-69
2022/12/15 13:18:25;;;;;;;26.05;14.30;;;;;;;11.81;67.50;99023.69;5010407;28;20061;-68
2022/12/15 13:20:55;;;;;;;58.88;29.55;;;;;;;11.66;68.56;99017.66;5005790;28;20081;-68
2022/12/15 13:23:21;;;;;;;46.08;23.73;;;;;;;11.63;68.49;99035.16;5010740;28;20068;-69
2022/12/15 13:25:52;;;;;;;89.35;44.38;;;;;;;11.51;69.39;99038.00;5010065;28;20548;-69
2022/12/15 13:28:26;;;;;;;51.25;26.50;;;;;;;11.44;70.12;99040.56;5007968;28;20132;-68
2022/12/15 13:31:10;;;;;;;122.28;51.67;;;;;;;11.48;69.61;99038.69;5009489;28;20022;-68
2022/12/15 13:33:44;;;;;;;106.68;48.70;;;;;;;11.36;69.97;99034.75;5005677;28;20040;-68
2022/12/15 13:36:10;;;;;;;37.75;19.02;;;;;;;11.30;70.22;99038.94;5006515;28;20022;-68
2022/12/15 13:39:21;;;;;;;26.60;17.15;;;;;;;11.37;70.71;99038.34;5008084;28;20045;-66
2022/12/15 13:41:52;;;;;;;29.23;16.02;;;;;;;11.43;70.49;99047.31;5008899;28;20048;-67
2022/12/15 13:44:29;;;;;;;47.38;21.30;;;;;;;11.47;70.52;99048.28;5008819;28;20029;-68
2022/12/15 13:46:58;;;;;;;27.88;17.75;;;;;;;11.38;70.38;99031.56;5009856;28;20168;-67
2022/12/15 13:49:36;;;;;;;40.92;19.58;;;;;;;11.41;70.17;99039.28;5007695;28;20046;-68
2022/12/15 13:52:32;;;;;;;20.90;13.43;;;;;;;11.28;71.27;99048.84;5007177;28;20026;-69
2022/12/15 13:55:04;;;;;;;38.67;17.60;;;;;;;11.30;71.37;99054.94;5002177;28;20057;-67
2022/12/15 13:57:38;;;;;;;33.00;16.90;;;;;;;11.19;71.76;99055.41;5006599;28;20038;-67
2022/12/15 14:00:17;;;;;;;25.98;15.45;;;;;;;11.25;71.43;99064.38;5004615;28;20025;-68
2022/12/15 14:02:43;;;;;;;31.38;15.13;;;;;;;11.10;72.17;99060.28;5005564;28;20033;-67
2022/12/15 14:05:22;;;;;;;33.33;19.77;;;;;;;11.00;73.05;99063.53;5005288;28;20038;-66